createdAt,value
2023-05-05T00:02:13.996Z,17.60
2023-05-05T00:04:40.531Z,17.60
2023-05-05T00:07:07.385Z,17.50
2023-05-05T00:09:34.196Z,17.50
2023-05-05T00:12:00.693Z,17.50
2023-05-05T00:14:27.548Z,17.50
2023-05-05T00:16:54.038Z,17.40
2023-05-05T00:19:20.896Z,17.40
2023-05-05T00:21:47.370Z,17.30
2023-05-05T00:24:14.245Z,17.30
2023-05-05T00:26:41.110Z,17.30
2023-05-05T00:29:07.613Z,17.30
2023-05-05T00:31:34.563Z,17.20
2023-05-05T00:34:01.076Z,17.20
2023-05-05T00:36:27.800Z,17.10
2023-05-05T00:38:54.236Z,17.10
2023-05-05T00:41:21.169Z,17.10
2023-05-05T00:43:47.970Z,17.00
2023-05-05T00:46:25.649Z,17.00
2023-05-05T00:48:53.336Z,16.90
2023-05-05T00:51:21.038Z,16.90
2023-05-05T00:53:48.916Z,16.90
2023-05-05T00:56:19.270Z,16.90
2023-05-05T00:58:46.184Z,16.90
2023-05-05T01:01:13.442Z,16.90
2023-05-05T01:03:41.486Z,16.90
2023-05-05T01:06:42.120Z,16.90
2023-05-05T01:09:22.504Z,16.90
2023-05-05T01:12:05.570Z,16.90
2023-05-05T01:14:38.478Z,16.80
2023-05-05T01:17:17.141Z,16.70
2023-05-05T01:19:59.337Z,16.60
2023-05-05T01:22:37.510Z,16.50
2023-05-05T01:25:30.673Z,16.40
2023-05-05T01:28:11.352Z,16.30
2023-05-05T01:31:05.101Z,16.20
2023-05-05T01:33:44.274Z,16.10
2023-05-05T01:36:15.337Z,16.00
2023-05-05T01:38:46.044Z,15.90
2023-05-05T01:41:25.506Z,15.90
2023-05-05T01:43:53.612Z,15.90
2023-05-05T01:46:23.849Z,15.90
2023-05-05T01:48:53.525Z,15.90
2023-05-05T01:51:23.802Z,15.80
2023-05-05T01:53:53.559Z,15.90
2023-05-05T01:56:23.019Z,15.80
2023-05-05T01:58:50.792Z,15.80
2023-05-05T02:01:22.254Z,15.80
2023-05-05T02:03:54.037Z,15.70
2023-05-05T02:06:22.573Z,15.70
2023-05-05T02:08:51.438Z,15.70
2023-05-05T02:11:18.422Z,15.60
2023-05-05T02:13:46.473Z,15.70
2023-05-05T02:16:14.152Z,15.70
2023-05-05T02:18:42.150Z,15.70
2023-05-05T02:21:09.233Z,15.80
2023-05-05T02:23:35.847Z,15.80
2023-05-05T02:26:07.998Z,15.80
2023-05-05T02:28:55.953Z,15.90
2023-05-05T02:31:26.200Z,16.00
2023-05-05T02:33:55.660Z,16.10
2023-05-05T02:36:24.090Z,16.10
2023-05-05T02:39:07.110Z,16.10
2023-05-05T02:41:38.412Z,16.10
2023-05-05T02:44:06.636Z,16.20
2023-05-05T02:46:33.972Z,16.10
2023-05-05T02:49:00.472Z,16.10
2023-05-05T02:51:26.947Z,16.00
2023-05-05T02:53:53.710Z,16.00
2023-05-05T02:56:40.704Z,15.90
2023-05-05T02:59:16.300Z,15.90
2023-05-05T03:02:12.652Z,15.80
2023-05-05T03:04:46.658Z,15.80
2023-05-05T03:07:38.500Z,15.70
2023-05-05T03:10:10.075Z,15.60
2023-05-05T03:12:52.105Z,15.60
2023-05-05T03:15:22.058Z,15.50
2023-05-05T03:17:50.183Z,15.40
2023-05-05T03:20:17.359Z,15.30
2023-05-05T03:22:44.658Z,15.30
2023-05-05T03:25:11.198Z,15.20
2023-05-05T03:27:37.935Z,15.20
2023-05-05T03:30:04.885Z,15.10
2023-05-05T03:32:31.419Z,15.10
2023-05-05T03:34:58.200Z,15.10
2023-05-05T03:37:24.697Z,15.00
2023-05-05T03:39:51.514Z,14.90
2023-05-05T03:42:17.950Z,14.90
2023-05-05T03:44:44.814Z,14.80
2023-05-05T03:47:11.258Z,14.80
2023-05-05T03:49:37.879Z,14.70
2023-05-05T03:52:05.029Z,14.70
2023-05-05T03:54:31.464Z,14.60
2023-05-05T03:56:58.230Z,14.60
2023-05-05T03:59:24.683Z,14.50
2023-05-05T04:01:51.516Z,14.50
2023-05-05T04:04:18.083Z,14.40
2023-05-05T04:06:44.984Z,14.40
2023-05-05T04:09:11.440Z,14.40
2023-05-05T04:11:38.246Z,14.40
2023-05-05T04:14:04.707Z,14.40
2023-05-05T04:16:31.506Z,14.30
2023-05-05T04:18:57.996Z,14.30
2023-05-05T04:21:24.476Z,14.30
2023-05-05T04:23:51.226Z,14.30
2023-05-05T04:26:17.677Z,14.40
2023-05-05T04:28:44.447Z,14.40
2023-05-05T04:31:10.999Z,14.40
2023-05-05T04:33:37.687Z,14.50
2023-05-05T04:36:04.421Z,14.60
2023-05-05T04:38:31.269Z,14.70
2023-05-05T04:40:57.757Z,14.80
2023-05-05T04:43:24.243Z,14.90
2023-05-05T04:45:56.926Z,15.00
2023-05-05T04:48:23.522Z,15.20
2023-05-05T04:50:50.009Z,15.30
2023-05-05T04:53:16.634Z,15.30
2023-05-05T04:55:43.128Z,15.40
2023-05-05T04:58:09.597Z,15.40
2023-05-05T05:00:36.304Z,15.40
2023-05-05T05:03:03.136Z,15.40
2023-05-05T05:05:30.031Z,15.40
2023-05-05T05:07:56.475Z,15.40
2023-05-05T05:10:23.019Z,15.50
2023-05-05T05:12:49.946Z,15.60
2023-05-05T05:15:16.434Z,15.80
2023-05-05T05:17:43.246Z,16.20
2023-05-05T05:20:10.249Z,16.80
2023-05-05T05:22:37.564Z,17.70
2023-05-05T05:25:04.370Z,18.70
2023-05-05T05:27:31.200Z,19.80
2023-05-05T05:29:57.989Z,21.00
2023-05-05T05:32:24.801Z,22.20
2023-05-05T05:34:51.264Z,23.10
2023-05-05T05:37:18.169Z,23.50
2023-05-05T05:39:51.080Z,23.60
2023-05-05T05:42:17.554Z,23.70
2023-05-05T05:44:44.433Z,23.70
2023-05-05T05:47:10.869Z,23.70
2023-05-05T05:49:37.893Z,23.60
2023-05-05T05:52:04.433Z,23.50
2023-05-05T05:54:31.141Z,23.40
2023-05-05T05:56:57.927Z,23.40
2023-05-05T05:59:24.360Z,23.40
2023-05-05T06:01:51.157Z,23.50
2023-05-05T06:04:17.654Z,23.60
2023-05-05T06:06:44.145Z,23.70
2023-05-05T06:09:10.590Z,24.20
2023-05-05T06:11:37.430Z,24.90
2023-05-05T06:14:03.946Z,25.40
2023-05-05T06:16:30.872Z,25.90
2023-05-05T06:18:57.583Z,26.40
2023-05-05T06:21:24.451Z,26.90
2023-05-05T06:23:50.928Z,27.20
2023-05-05T06:26:17.779Z,27.70
2023-05-05T06:28:44.734Z,28.00
2023-05-05T06:31:11.192Z,28.00
2023-05-05T06:33:38.087Z,27.80
2023-05-05T06:36:04.965Z,27.70
2023-05-05T06:38:31.475Z,27.60
2023-05-05T06:40:58.314Z,27.60
2023-05-05T06:43:24.915Z,27.30
2023-05-05T06:45:51.768Z,26.90
2023-05-05T06:48:18.529Z,26.70
2023-05-05T06:50:45.501Z,26.60
2023-05-05T06:53:11.976Z,26.70
2023-05-05T06:55:38.857Z,26.60
2023-05-05T06:58:05.296Z,26.00
2023-05-05T07:00:32.135Z,25.80
2023-05-05T07:02:58.634Z,25.60
2023-05-05T07:05:25.594Z,25.30
2023-05-05T07:07:54.121Z,25.40
2023-05-05T07:10:21.883Z,25.60
2023-05-05T07:12:49.355Z,26.00
2023-05-05T07:15:26.742Z,26.50
2023-05-05T07:17:55.879Z,26.90
2023-05-05T07:20:22.856Z,27.30
2023-05-05T07:22:49.303Z,27.60
2023-05-05T07:25:16.284Z,28.00
2023-05-05T07:27:42.861Z,28.20
2023-05-05T07:30:13.998Z,28.30
2023-05-05T07:32:43.019Z,28.60
2023-05-05T07:35:10.038Z,28.70
2023-05-05T07:37:36.749Z,28.70
2023-05-05T07:40:03.482Z,28.50
2023-05-05T07:42:30.277Z,28.20
2023-05-05T07:44:56.716Z,28.10
2023-05-05T07:47:23.218Z,28.20
2023-05-05T07:49:49.980Z,28.30
2023-05-05T07:52:16.421Z,28.60
2023-05-05T07:54:43.243Z,29.00
2023-05-05T07:57:09.717Z,29.10
2023-05-05T07:59:36.438Z,28.90
2023-05-05T08:02:02.882Z,29.10
2023-05-05T08:04:29.459Z,29.40
2023-05-05T08:06:56.451Z,29.60
2023-05-05T08:09:22.892Z,29.70
2023-05-05T08:11:49.557Z,30.00
2023-05-05T08:14:16.053Z,30.20
2023-05-05T08:16:43.004Z,30.20
2023-05-05T08:19:21.241Z,29.90
2023-05-05T08:21:54.927Z,30.00
2023-05-05T08:24:21.489Z,30.00
2023-05-05T08:26:48.404Z,30.10
2023-05-05T08:29:18.322Z,30.20
2023-05-05T08:31:44.893Z,30.10
2023-05-05T08:34:11.709Z,29.60
2023-05-05T08:36:38.215Z,29.80
2023-05-05T08:39:05.121Z,30.20
2023-05-05T08:41:33.162Z,30.60
2023-05-05T08:43:59.956Z,31.00
2023-05-05T08:46:27.735Z,31.10
2023-05-05T08:48:55.261Z,31.50
2023-05-05T08:51:27.328Z,31.70
2023-05-05T08:53:57.914Z,31.80
2023-05-05T08:56:39.292Z,32.30
2023-05-05T08:59:06.534Z,32.60
2023-05-05T09:01:34.348Z,32.10
2023-05-05T09:04:00.956Z,32.00
2023-05-05T09:06:27.967Z,32.10
2023-05-05T09:08:54.437Z,32.00
2023-05-05T09:11:21.320Z,31.50
2023-05-05T09:13:48.159Z,31.10
2023-05-05T09:16:14.661Z,31.10
2023-05-05T09:18:43.966Z,31.10
2023-05-05T09:21:24.227Z,31.10
2023-05-05T09:24:09.510Z,30.80
2023-05-05T09:26:44.572Z,30.40
2023-05-05T09:29:18.229Z,30.00
2023-05-05T09:31:45.083Z,29.40
2023-05-05T09:34:16.142Z,29.10
2023-05-05T09:36:47.246Z,28.90
2023-05-05T09:39:16.352Z,28.80
2023-05-05T09:41:43.294Z,29.20
2023-05-05T09:44:11.553Z,29.30
2023-05-05T09:46:38.861Z,29.30
2023-05-05T09:49:14.201Z,29.20
2023-05-05T09:51:41.149Z,29.20
2023-05-05T09:54:07.680Z,29.00
2023-05-05T09:56:40.942Z,28.80
2023-05-05T09:59:11.331Z,28.80
2023-05-05T10:01:38.663Z,28.70
2023-05-05T10:04:05.435Z,28.70
2023-05-05T10:06:43.914Z,28.60
2023-05-05T10:09:10.376Z,28.60
2023-05-05T10:11:36.992Z,28.70
2023-05-05T10:14:07.701Z,28.50
2023-05-05T10:16:35.888Z,28.50
2023-05-05T10:19:03.537Z,28.30
2023-05-05T10:21:40.953Z,28.20
2023-05-05T10:24:38.837Z,28.10
2023-05-05T10:27:19.148Z,27.90
2023-05-05T10:29:55.119Z,27.70
2023-05-05T10:33:00.848Z,27.50
2023-05-05T10:35:38.363Z,27.20
2023-05-05T10:38:08.589Z,27.10
2023-05-05T10:40:35.614Z,27.00
2023-05-05T10:43:02.934Z,26.90
2023-05-05T10:45:30.345Z,26.80
2023-05-05T10:48:00.796Z,26.80
2023-05-05T10:50:32.516Z,26.90
2023-05-05T10:53:19.520Z,27.00
2023-05-05T10:56:25.960Z,27.10
2023-05-05T10:58:59.800Z,27.10
2023-05-05T11:01:34.005Z,27.10
2023-05-05T11:04:17.552Z,27.30
2023-05-05T11:07:11.871Z,27.30
2023-05-05T11:09:58.358Z,27.20
2023-05-05T11:12:25.887Z,27.20
2023-05-05T11:15:23.286Z,27.20
2023-05-05T11:17:49.999Z,27.10
2023-05-05T11:20:16.924Z,27.10
2023-05-05T11:23:01.893Z,27.00
2023-05-05T11:25:38.230Z,26.90
2023-05-05T11:28:04.767Z,26.80
2023-05-05T11:30:31.309Z,26.80
2023-05-05T11:33:23.114Z,26.90
2023-05-05T11:35:57.008Z,27.00
2023-05-05T11:38:40.244Z,27.10
2023-05-05T11:41:13.733Z,27.10
2023-05-05T11:43:40.575Z,27.00
2023-05-05T11:46:17.321Z,26.90
2023-05-05T11:48:48.076Z,26.90
2023-05-05T11:51:16.356Z,26.70
2023-05-05T11:53:44.337Z,26.60
2023-05-05T11:56:12.319Z,26.40
2023-05-05T11:58:38.856Z,26.30
2023-05-05T12:01:07.160Z,25.90
2023-05-05T12:03:37.923Z,25.50
2023-05-05T12:06:08.116Z,25.30
2023-05-05T12:08:41.718Z,24.80
2023-05-05T12:11:10.101Z,24.40
2023-05-05T12:13:37.373Z,23.50
2023-05-05T12:16:11.562Z,22.70
2023-05-05T12:18:38.607Z,21.90
2023-05-05T12:21:19.342Z,21.60
2023-05-05T12:23:46.044Z,21.30
2023-05-05T12:26:29.354Z,21.10
2023-05-05T12:29:00.642Z,20.90
2023-05-05T12:31:41.348Z,20.90
2023-05-05T12:34:10.564Z,21.10
2023-05-05T12:36:38.318Z,21.30
2023-05-05T12:39:05.368Z,21.50
2023-05-05T12:41:32.680Z,21.80
2023-05-05T12:44:00.354Z,21.90
2023-05-05T12:46:28.051Z,22.20
2023-05-05T12:49:06.474Z,22.30
2023-05-05T12:51:35.188Z,22.30
2023-05-05T12:54:05.827Z,22.20
2023-05-05T12:56:37.045Z,21.90
2023-05-05T12:59:07.965Z,21.70
2023-05-05T13:01:36.533Z,21.50
2023-05-05T13:04:13.646Z,21.30
2023-05-05T13:06:41.795Z,21.20
2023-05-05T13:09:09.147Z,21.20
2023-05-05T13:11:36.930Z,21.30
2023-05-05T13:14:04.166Z,21.10
2023-05-05T13:16:30.710Z,20.60
2023-05-05T13:18:57.293Z,20.00
2023-05-05T13:21:24.043Z,19.70
2023-05-05T13:23:50.521Z,19.00
2023-05-05T13:26:17.119Z,18.90
2023-05-05T13:28:43.538Z,18.70
2023-05-05T13:31:10.039Z,18.60
2023-05-05T13:33:36.780Z,18.50
2023-05-05T13:36:03.494Z,18.30
2023-05-05T13:38:30.114Z,18.30
2023-05-05T13:40:56.644Z,18.20
2023-05-05T13:43:23.084Z,18.30
2023-05-05T13:45:49.540Z,18.10
2023-05-05T13:48:16.386Z,18.10
2023-05-05T13:50:42.861Z,18.20
2023-05-05T13:53:09.685Z,18.20
2023-05-05T13:55:36.147Z,18.10
2023-05-05T13:58:03.055Z,18.00
2023-05-05T14:00:29.629Z,17.90
2023-05-05T14:02:56.277Z,17.80
2023-05-05T14:05:22.821Z,17.60
2023-05-05T14:07:49.299Z,17.40
2023-05-05T14:10:15.755Z,17.40
2023-05-05T14:12:42.587Z,17.20
2023-05-05T14:15:09.707Z,17.00
2023-05-05T14:17:36.465Z,16.90
2023-05-05T14:20:03.394Z,16.70
2023-05-05T14:22:29.963Z,16.50
2023-05-05T14:24:56.466Z,16.40
2023-05-05T14:27:22.929Z,16.30
2023-05-05T14:29:49.618Z,16.20
2023-05-05T14:32:16.165Z,16.10
2023-05-05T14:34:42.732Z,15.90
2023-05-05T14:37:09.214Z,15.80
2023-05-05T14:39:35.699Z,15.60
2023-05-05T14:42:02.129Z,15.50
2023-05-05T14:44:28.909Z,15.50
2023-05-05T14:46:55.407Z,15.40
2023-05-05T14:49:22.235Z,15.40
2023-05-05T14:51:49.358Z,15.40
2023-05-05T14:54:27.356Z,15.30
2023-05-05T14:56:55.593Z,15.40
2023-05-05T14:59:22.049Z,15.40
2023-05-05T15:01:48.885Z,15.40
2023-05-05T15:04:15.524Z,15.50
2023-05-05T15:06:42.447Z,15.50
2023-05-05T15:09:08.909Z,15.60
2023-05-05T15:11:35.802Z,15.70
2023-05-05T15:14:02.495Z,15.80
2023-05-05T15:16:29.026Z,15.90
2023-05-05T15:18:55.595Z,16.10
2023-05-05T15:21:22.060Z,16.40
2023-05-05T15:23:49.180Z,16.70
2023-05-05T15:26:15.634Z,16.90
2023-05-05T15:28:42.321Z,17.10
2023-05-05T15:31:09.156Z,17.30
2023-05-05T15:33:35.620Z,17.20
2023-05-05T15:36:02.424Z,17.30
2023-05-05T15:38:29.924Z,17.20
2023-05-05T15:40:57.084Z,17.20
2023-05-05T15:43:23.576Z,17.20
2023-05-05T15:45:50.011Z,17.20
2023-05-05T15:48:16.701Z,17.30
2023-05-05T15:50:43.154Z,17.40
2023-05-05T15:53:09.608Z,17.40
2023-05-05T15:55:36.060Z,17.30
2023-05-05T15:58:02.900Z,17.30
2023-05-05T16:00:29.837Z,17.20
2023-05-05T16:02:56.469Z,17.30
2023-05-05T16:05:23.272Z,17.30
2023-05-05T16:07:50.298Z,17.30
2023-05-05T16:10:16.817Z,17.40
2023-05-05T16:12:43.349Z,17.50
2023-05-05T16:15:10.593Z,17.80
2023-05-05T16:17:37.413Z,18.00
2023-05-05T16:20:04.583Z,18.10
2023-05-05T16:22:31.041Z,18.20
2023-05-05T16:24:57.952Z,18.10
2023-05-05T16:27:24.385Z,18.10
2023-05-05T16:29:51.172Z,18.10
2023-05-05T16:32:17.682Z,18.00
2023-05-05T16:34:44.408Z,17.80
2023-05-05T16:37:10.878Z,17.80
2023-05-05T16:39:37.323Z,17.70
2023-05-05T16:42:04.234Z,17.60
2023-05-05T16:44:30.688Z,17.50
2023-05-05T16:46:57.130Z,17.50
2023-05-05T16:49:23.579Z,17.50
2023-05-05T16:51:51.204Z,17.50
2023-05-05T16:54:17.744Z,17.60
2023-05-05T16:56:44.597Z,17.60
2023-05-05T16:59:11.121Z,17.60
2023-05-05T17:01:37.982Z,17.60
2023-05-05T17:04:04.785Z,17.60
2023-05-05T17:06:34.075Z,17.50
2023-05-05T17:09:00.627Z,17.60
2023-05-05T17:11:27.060Z,17.50
2023-05-05T17:13:54.218Z,17.60
2023-05-05T17:16:20.688Z,17.60
2023-05-05T17:18:47.553Z,17.70
2023-05-05T17:21:14.298Z,17.80
2023-05-05T17:23:40.754Z,17.80
2023-05-05T17:26:07.652Z,17.90
2023-05-05T17:28:34.120Z,17.90
2023-05-05T17:31:00.966Z,17.90
2023-05-05T17:33:28.103Z,18.00
2023-05-05T17:35:55.065Z,18.00
2023-05-05T17:38:22.010Z,18.00
2023-05-05T17:40:48.442Z,18.00
2023-05-05T17:43:15.378Z,18.10
2023-05-05T17:45:41.897Z,18.10
2023-05-05T17:48:08.714Z,18.10
2023-05-05T17:50:35.179Z,18.00
2023-05-05T17:54:34.882Z,17.90
2023-05-05T17:57:01.365Z,17.80
2023-05-05T17:59:28.170Z,17.70
2023-05-05T18:01:54.622Z,17.60
2023-05-05T18:04:21.071Z,17.60
2023-05-05T18:06:47.535Z,17.50
2023-05-05T18:09:14.035Z,17.40
2023-05-05T18:11:40.483Z,17.30
2023-05-05T18:14:07.345Z,17.10
2023-05-05T18:16:33.835Z,17.10
2023-05-05T18:19:00.279Z,16.90
2023-05-05T18:21:26.958Z,16.90
2023-05-05T18:23:55.650Z,16.80
2023-05-05T18:26:25.960Z,16.70
2023-05-05T18:28:52.433Z,16.60
2023-05-05T18:31:18.889Z,16.50
2023-05-05T18:33:47.697Z,16.30
2023-05-05T18:36:14.419Z,16.20
2023-05-05T18:38:41.259Z,16.10
2023-05-05T18:41:07.810Z,16.00
2023-05-05T18:43:34.267Z,15.90
2023-05-05T18:46:00.777Z,15.80
2023-05-05T18:48:27.203Z,15.70
2023-05-05T18:50:53.654Z,15.60
2023-05-05T18:53:20.132Z,15.60
2023-05-05T18:55:47.013Z,15.50
2023-05-05T18:58:13.502Z,15.40
2023-05-05T19:00:39.957Z,15.40
2023-05-05T19:03:06.423Z,15.30
2023-05-05T19:05:32.908Z,15.20
2023-05-05T19:07:59.395Z,15.20
2023-05-05T19:10:25.860Z,15.10
2023-05-05T19:12:52.386Z,15.10
2023-05-05T19:15:18.995Z,15.00
2023-05-05T19:17:45.808Z,15.00
2023-05-05T19:20:12.470Z,14.90
2023-05-05T19:22:38.911Z,14.80
2023-05-05T19:25:05.790Z,14.80
2023-05-05T19:27:32.247Z,14.70
2023-05-05T19:29:58.736Z,14.60
2023-05-05T19:32:25.279Z,14.50
2023-05-05T19:34:52.131Z,14.50
2023-05-05T19:37:18.591Z,14.40
2023-05-05T19:39:45.118Z,14.30
2023-05-05T19:42:11.978Z,14.30
2023-05-05T19:44:38.848Z,14.30
2023-05-05T19:47:05.539Z,14.20
2023-05-05T19:49:32.030Z,14.20
2023-05-05T19:51:58.556Z,14.10
2023-05-05T19:54:25.569Z,14.10
2023-05-05T19:56:54.142Z,14.00
2023-05-05T19:59:21.767Z,14.00
2023-05-05T20:01:48.800Z,14.00
2023-05-05T20:04:15.354Z,13.90
2023-05-05T20:06:41.860Z,13.90
2023-05-05T20:09:08.315Z,13.80
2023-05-05T20:11:34.980Z,13.80
2023-05-05T20:14:01.651Z,13.80
2023-05-05T20:16:28.544Z,13.70
2023-05-05T20:18:55.390Z,13.70
2023-05-05T20:21:22.268Z,13.60
2023-05-05T20:23:49.100Z,13.60
2023-05-05T20:26:15.578Z,13.50
2023-05-05T20:28:45.110Z,13.50
2023-05-05T20:31:14.825Z,13.40
2023-05-05T20:33:41.668Z,13.30
2023-05-05T20:36:08.164Z,13.30
2023-05-05T20:38:34.695Z,13.30
2023-05-05T20:41:01.539Z,13.20
2023-05-05T20:43:28.070Z,13.20
2023-05-05T20:45:54.942Z,13.20
2023-05-05T20:48:21.438Z,13.20
2023-05-05T20:50:47.981Z,13.20
2023-05-05T20:53:15.801Z,13.20
2023-05-05T20:55:42.690Z,13.20
2023-05-05T20:58:09.468Z,13.20
2023-05-05T21:00:35.988Z,13.10
2023-05-05T21:03:03.122Z,13.10
2023-05-05T21:05:30.173Z,13.00
2023-05-05T21:07:58.496Z,13.00
2023-05-05T21:10:27.420Z,13.00
2023-05-05T21:12:54.003Z,12.90
2023-05-05T21:15:20.726Z,12.90
2023-05-05T21:17:47.169Z,12.90
2023-05-05T21:20:13.993Z,12.90
2023-05-05T21:22:40.479Z,12.90
2023-05-05T21:25:18.537Z,12.90
2023-05-05T21:27:47.067Z,12.90
2023-05-05T21:30:13.998Z,12.80
2023-05-05T21:32:41.224Z,12.80
2023-05-05T21:35:08.597Z,12.80
2023-05-05T21:37:37.716Z,12.70
2023-05-05T21:40:04.940Z,12.70
2023-05-05T21:42:31.640Z,12.70
2023-05-05T21:44:58.090Z,12.70
2023-05-05T21:47:24.976Z,12.70
2023-05-05T21:49:51.446Z,12.70
2023-05-05T21:52:17.967Z,12.70
2023-05-05T21:54:44.793Z,12.70
2023-05-05T21:57:11.261Z,12.70
2023-05-05T21:59:37.717Z,12.70
2023-05-05T22:02:04.234Z,12.70
2023-05-05T22:04:31.040Z,12.70
2023-05-05T22:06:57.726Z,12.70
2023-05-05T22:09:24.698Z,12.70
2023-05-05T22:11:51.396Z,12.70
2023-05-05T22:14:18.390Z,12.60
2023-05-05T22:16:44.932Z,12.60
2023-05-05T22:19:11.604Z,12.60
2023-05-05T22:21:38.082Z,12.60
2023-05-05T22:24:05.530Z,12.60
2023-05-05T22:26:32.411Z,12.60
2023-05-05T22:28:59.327Z,12.60
2023-05-05T22:31:26.193Z,12.60
2023-05-05T22:33:52.650Z,12.60
2023-05-05T22:36:19.414Z,12.50
2023-05-05T22:38:45.865Z,12.50
2023-05-05T22:41:12.695Z,12.50
2023-05-05T22:43:39.202Z,12.50
2023-05-05T22:46:06.009Z,12.40
2023-05-05T22:48:32.506Z,12.40
2023-05-05T22:50:59.365Z,12.40
2023-05-05T22:53:26.124Z,12.40
2023-05-05T22:55:52.630Z,12.40
2023-05-05T22:58:19.714Z,12.30
2023-05-05T23:00:46.186Z,12.30
2023-05-05T23:03:13.670Z,12.30
2023-05-05T23:05:40.486Z,12.30
2023-05-05T23:08:06.966Z,12.30
2023-05-05T23:10:33.777Z,12.40
2023-05-05T23:13:00.272Z,12.30
2023-05-05T23:15:27.204Z,12.40
2023-05-05T23:17:53.832Z,12.40
2023-05-05T23:20:20.749Z,12.50
2023-05-05T23:22:47.211Z,12.50
2023-05-05T23:25:14.088Z,12.60
2023-05-05T23:27:40.900Z,12.60
2023-05-05T23:30:08.891Z,12.60
2023-05-05T23:32:35.961Z,12.60
2023-05-05T23:35:02.486Z,12.50
2023-05-05T23:37:29.343Z,12.50
2023-05-05T23:39:56.530Z,12.50
2023-05-05T23:42:24.784Z,12.50
2023-05-05T23:44:51.291Z,12.50
2023-05-05T23:47:18.141Z,12.40
2023-05-05T23:49:44.641Z,12.40
2023-05-05T23:52:11.765Z,12.40
2023-05-05T23:54:38.802Z,12.40
2023-05-05T23:57:05.829Z,12.30
2023-05-05T23:59:32.280Z,12.30
